createdAt,value
2016-07-03T00:00:39.049Z,1013.37
2016-07-03T00:01:39.044Z,1013.35
2016-07-03T00:02:39.040Z,1013.36
2016-07-03T00:03:39.036Z,1013.38
2016-07-03T00:04:39.032Z,1013.35
2016-07-03T00:05:39.030Z,1013.32
2016-07-03T00:06:39.025Z,1013.36
2016-07-03T00:07:39.021Z,1013.4
2016-07-03T00:08:39.014Z,1013.37
2016-07-03T00:09:39.008Z,1013.41
2016-07-03T00:10:39.013Z,1013.4
2016-07-03T00:11:39.001Z,1013.43
2016-07-03T00:12:38.999Z,1013.44
2016-07-03T00:13:38.993Z,1013.44
2016-07-03T00:14:38.990Z,1013.46
2016-07-03T00:15:38.992Z,1013.47
2016-07-03T00:16:38.978Z,1013.45
2016-07-03T00:17:38.975Z,1013.43
2016-07-03T00:18:38.972Z,1013.44
2016-07-03T00:19:38.968Z,1013.47
2016-07-03T00:20:38.962Z,1013.46
2016-07-03T00:21:38.959Z,1013.51
2016-07-03T00:22:38.957Z,1013.52
2016-07-03T00:23:38.947Z,1013.54
2016-07-03T00:24:38.949Z,1013.55
2016-07-03T00:25:38.942Z,1013.6
2016-07-03T00:26:38.936Z,1013.6
2016-07-03T00:27:38.931Z,1013.62
2016-07-03T00:28:38.928Z,1013.63
2016-07-03T00:29:38.926Z,1013.65
2016-07-03T00:30:38.924Z,1013.67
2016-07-03T00:31:38.920Z,1013.63
2016-07-03T00:32:38.922Z,1013.65
2016-07-03T00:33:38.909Z,1013.67
2016-07-03T00:34:38.906Z,1013.72
2016-07-03T00:35:38.899Z,1013.73
2016-07-03T00:36:38.898Z,1013.72
2016-07-03T00:37:38.896Z,1013.76
2016-07-03T00:38:38.889Z,1013.75
2016-07-03T00:39:39.389Z,1013.77
2016-07-03T00:40:39.283Z,1013.75
2016-07-03T00:41:38.874Z,1013.78
2016-07-03T00:42:38.876Z,1013.78
2016-07-03T00:43:38.871Z,1013.8
2016-07-03T00:44:38.865Z,1013.82
2016-07-03T00:45:38.862Z,1013.81
2016-07-03T00:46:38.858Z,1013.82
2016-07-03T00:47:38.856Z,1013.81
2016-07-03T00:48:38.853Z,1013.86
2016-07-03T00:49:38.848Z,1013.81
2016-07-03T00:50:38.844Z,1013.81
2016-07-03T00:51:38.841Z,1013.85
2016-07-03T00:52:38.835Z,1013.89
2016-07-03T00:53:38.831Z,1013.84
2016-07-03T00:54:38.824Z,1013.87
2016-07-03T00:55:38.824Z,1013.85
2016-07-03T00:56:38.822Z,1013.86
2016-07-03T00:57:38.816Z,1013.9
2016-07-03T00:58:38.814Z,1013.82
2016-07-03T00:59:38.811Z,1013.88
2016-07-03T01:00:38.807Z,1013.87
2016-07-03T01:01:39.075Z,1013.87
2016-07-03T01:02:38.800Z,1013.88
2016-07-03T01:03:38.796Z,1013.88
2016-07-03T01:04:38.790Z,1013.89
2016-07-03T01:05:40.032Z,1013.85
2016-07-03T01:06:38.784Z,1013.85
2016-07-03T01:07:39.044Z,1013.82
2016-07-03T01:08:38.918Z,1013.85
2016-07-03T01:09:38.773Z,1013.83
2016-07-03T01:10:38.770Z,1013.83
2016-07-03T01:11:38.766Z,1013.82
2016-07-03T01:12:38.760Z,1013.86
2016-07-03T01:13:38.847Z,1013.86
2016-07-03T01:14:38.753Z,1013.92
2016-07-03T01:15:38.750Z,1013.9
2016-07-03T01:16:38.748Z,1013.92
2016-07-03T01:17:38.742Z,1013.89
2016-07-03T01:18:38.742Z,1013.94
2016-07-03T01:19:38.740Z,1013.93
2016-07-03T01:20:38.736Z,1013.96
2016-07-03T01:21:38.730Z,1013.96
2016-07-03T01:22:38.727Z,1013.96
2016-07-03T01:23:38.724Z,1013.94
2016-07-03T01:24:38.721Z,1013.98
2016-07-03T01:25:38.719Z,1014
2016-07-03T01:26:38.715Z,1013.98
2016-07-03T01:27:38.710Z,1014
2016-07-03T01:28:38.705Z,1014
2016-07-03T01:29:38.702Z,1014.02
2016-07-03T01:30:38.699Z,1014.02
2016-07-03T01:31:38.695Z,1014.03
2016-07-03T01:32:38.692Z,1014.05
2016-07-03T01:33:38.689Z,1014.08
2016-07-03T01:34:38.685Z,1014.07
2016-07-03T01:35:38.682Z,1014.06
2016-07-03T01:36:38.673Z,1014.05
2016-07-03T01:37:38.673Z,1014.04
2016-07-03T01:38:38.670Z,1014.04
2016-07-03T01:39:38.665Z,1014
2016-07-03T01:40:38.662Z,1014.01
2016-07-03T01:41:38.659Z,1014.05
2016-07-03T01:42:38.656Z,1014.02
2016-07-03T01:43:38.651Z,1014.06
2016-07-03T01:44:38.648Z,1014.05
2016-07-03T01:45:38.643Z,1014.06
2016-07-03T01:46:38.639Z,1014.04
2016-07-03T01:47:38.634Z,1014.03
2016-07-03T01:49:38.625Z,1014
2016-07-03T01:50:38.623Z,1014.01
2016-07-03T01:51:38.618Z,1014.04
2016-07-03T01:52:38.617Z,1014.03
2016-07-03T01:53:38.609Z,1014.02
2016-07-03T01:54:38.756Z,1014.03
2016-07-03T01:55:38.600Z,1014.03
2016-07-03T01:56:38.596Z,1014.05
2016-07-03T01:57:38.593Z,1014.07
2016-07-03T01:58:39.138Z,1014.06
2016-07-03T01:59:38.589Z,1014.04
2016-07-03T02:00:38.584Z,1014.07
2016-07-03T02:01:38.578Z,1014.1
2016-07-03T02:02:38.576Z,1014.06
2016-07-03T02:03:38.571Z,1014.07
2016-07-03T02:04:38.567Z,1014.07
2016-07-03T02:05:38.566Z,1014.07
2016-07-03T02:06:38.556Z,1014.11
2016-07-03T02:07:38.550Z,1014.15
2016-07-03T02:08:38.549Z,1014.12
2016-07-03T02:09:38.543Z,1014.15
2016-07-03T02:10:38.541Z,1014.12
2016-07-03T02:11:38.536Z,1014.16
2016-07-03T02:12:38.533Z,1014.12
2016-07-03T02:13:38.526Z,1014.17
2016-07-03T02:14:38.521Z,1014.12
2016-07-03T02:15:38.517Z,1014.13
2016-07-03T02:16:38.974Z,1014.12
2016-07-03T02:17:39.271Z,1014.11
2016-07-03T02:18:38.502Z,1014.15
2016-07-03T02:19:38.500Z,1014.18
2016-07-03T02:20:38.494Z,1014.19
2016-07-03T02:21:38.492Z,1014.18
2016-07-03T02:22:38.483Z,1014.16
2016-07-03T02:24:38.478Z,1014.17
2016-07-03T02:25:38.474Z,1014.14
2016-07-03T02:26:38.468Z,1014.18
2016-07-03T02:27:38.462Z,1014.22
2016-07-03T02:28:39.302Z,1014.2
2016-07-03T02:29:38.455Z,1014.16
2016-07-03T02:30:38.457Z,1014.18
2016-07-03T02:31:38.443Z,1014.17
2016-07-03T02:32:38.437Z,1014.17
2016-07-03T02:33:38.436Z,1014.15
2016-07-03T02:34:38.430Z,1014.16
2016-07-03T02:35:38.427Z,1014.19
2016-07-03T02:36:38.419Z,1014.19
2016-07-03T02:37:38.418Z,1014.17
2016-07-03T02:38:38.409Z,1014.16
2016-07-03T02:39:38.409Z,1014.16
2016-07-03T02:40:38.403Z,1014.17
2016-07-03T02:41:38.397Z,1014.15
2016-07-03T02:42:38.394Z,1014.15
2016-07-03T02:43:38.390Z,1014.19
2016-07-03T02:44:38.385Z,1014.19
2016-07-03T02:45:38.378Z,1014.18
2016-07-03T02:46:38.377Z,1014.21
2016-07-03T02:47:38.368Z,1014.25
2016-07-03T02:48:38.367Z,1014.23
2016-07-03T02:49:38.357Z,1014.28
2016-07-03T02:50:38.355Z,1014.3
2016-07-03T02:51:38.348Z,1014.28
2016-07-03T02:52:38.344Z,1014.3
2016-07-03T02:53:38.340Z,1014.35
2016-07-03T02:54:38.335Z,1014.33
2016-07-03T02:55:38.328Z,1014.36
2016-07-03T02:56:38.324Z,1014.35
2016-07-03T02:57:38.318Z,1014.38
2016-07-03T02:58:38.314Z,1014.36
2016-07-03T02:59:38.308Z,1014.37
2016-07-03T03:00:38.307Z,1014.39
2016-07-03T03:01:38.298Z,1014.39
2016-07-03T03:02:38.293Z,1014.44
2016-07-03T03:03:38.287Z,1014.46
2016-07-03T03:04:38.283Z,1014.48
2016-07-03T03:05:38.280Z,1014.46
2016-07-03T03:06:38.323Z,1014.51
2016-07-03T03:07:38.566Z,1014.53
2016-07-03T03:08:38.261Z,1014.53
2016-07-03T03:09:38.260Z,1014.53
2016-07-03T03:10:38.751Z,1014.53
2016-07-03T03:11:38.247Z,1014.57
2016-07-03T03:12:38.241Z,1014.57
2016-07-03T03:13:38.238Z,1014.58
2016-07-03T03:14:38.238Z,1014.62
2016-07-03T03:15:38.227Z,1014.63
2016-07-03T03:16:38.222Z,1014.59
2016-07-03T03:17:38.219Z,1014.6
2016-07-03T03:18:38.213Z,1014.61
2016-07-03T03:19:38.204Z,1014.61
2016-07-03T03:20:38.202Z,1014.66
2016-07-03T03:21:38.199Z,1014.67
2016-07-03T03:22:38.193Z,1014.67
2016-07-03T03:23:38.187Z,1014.65
2016-07-03T03:24:38.181Z,1014.71
2016-07-03T03:25:38.177Z,1014.76
2016-07-03T03:26:38.171Z,1014.78
2016-07-03T03:27:38.164Z,1014.73
2016-07-03T03:28:38.164Z,1014.79
2016-07-03T03:29:38.158Z,1014.8
2016-07-03T03:30:38.151Z,1014.81
2016-07-03T03:31:38.148Z,1014.81
2016-07-03T03:32:38.144Z,1014.81
2016-07-03T03:33:38.138Z,1014.79
2016-07-03T03:34:38.132Z,1014.81
2016-07-03T03:35:38.129Z,1014.83
2016-07-03T03:36:38.126Z,1014.83
2016-07-03T03:37:38.117Z,1014.83
2016-07-03T03:38:38.116Z,1014.83
2016-07-03T03:39:38.112Z,1014.83
2016-07-03T03:40:38.106Z,1014.87
2016-07-03T03:41:38.100Z,1014.83
2016-07-03T03:42:38.098Z,1014.85
2016-07-03T03:43:38.210Z,1014.81
2016-07-03T03:44:38.091Z,1014.84
2016-07-03T03:45:38.883Z,1014.82
2016-07-03T03:46:38.090Z,1014.85
2016-07-03T03:47:38.088Z,1014.87
2016-07-03T03:48:38.085Z,1014.85
2016-07-03T03:49:38.086Z,1014.85
2016-07-03T03:50:38.081Z,1014.87
2016-07-03T03:51:38.076Z,1014.89
2016-07-03T03:52:38.077Z,1014.9
2016-07-03T03:53:38.070Z,1014.94
2016-07-03T03:54:38.074Z,1014.9
2016-07-03T03:55:38.070Z,1014.91
2016-07-03T03:56:38.072Z,1014.92
2016-07-03T03:57:38.075Z,1014.91
2016-07-03T03:58:38.071Z,1014.93
2016-07-03T03:59:38.069Z,1014.94
2016-07-03T04:00:38.067Z,1014.93
2016-07-03T04:01:38.066Z,1014.95
2016-07-03T04:02:38.069Z,1014.97
2016-07-03T04:03:38.067Z,1014.99
2016-07-03T04:04:38.071Z,1015.01
2016-07-03T04:05:38.071Z,1014.91
2016-07-03T04:06:38.072Z,1015
2016-07-03T04:07:38.074Z,1015
2016-07-03T04:08:38.074Z,1014.97
2016-07-03T04:09:38.076Z,1015
2016-07-03T04:10:38.080Z,1015
2016-07-03T04:11:38.081Z,1015.02
2016-07-03T04:12:38.085Z,1015.03
2016-07-03T04:13:38.088Z,1015.08
2016-07-03T04:14:38.088Z,1015.08
2016-07-03T04:15:38.092Z,1015.1
2016-07-03T04:16:38.097Z,1015.12
2016-07-03T04:17:38.099Z,1015.11
2016-07-03T04:18:38.102Z,1015.07
2016-07-03T04:19:38.108Z,1015.09
2016-07-03T04:20:38.112Z,1015.12
2016-07-03T04:21:38.114Z,1015.07
2016-07-03T04:22:38.123Z,1015.1
2016-07-03T04:23:38.130Z,1015.07
2016-07-03T04:24:38.131Z,1015.08
2016-07-03T04:25:38.138Z,1015.08
2016-07-03T04:26:38.145Z,1015.13
2016-07-03T04:27:38.152Z,1015.16
2016-07-03T04:28:38.156Z,1015.15
2016-07-03T04:29:38.165Z,1015.13
2016-07-03T04:30:38.168Z,1015.13
2016-07-03T04:31:38.175Z,1015.16
2016-07-03T04:32:38.181Z,1015.13
2016-07-03T04:33:38.189Z,1015.19
2016-07-03T04:34:38.198Z,1015.18
2016-07-03T04:35:38.206Z,1015.21
2016-07-03T04:36:38.211Z,1015.18
2016-07-03T04:38:38.679Z,1015.16
2016-07-03T04:39:38.232Z,1015.19
2016-07-03T04:40:38.244Z,1015.21
2016-07-03T04:41:38.253Z,1015.22
2016-07-03T04:42:38.258Z,1015.26
2016-07-03T04:43:38.270Z,1015.24
2016-07-03T04:44:38.277Z,1015.26
2016-07-03T04:45:38.287Z,1015.27
2016-07-03T04:46:38.295Z,1015.28
2016-07-03T04:47:38.304Z,1015.26
2016-07-03T04:48:38.313Z,1015.26
2016-07-03T04:49:38.323Z,1015.27
2016-07-03T04:50:38.331Z,1015.26
2016-07-03T04:51:38.339Z,1015.31
2016-07-03T04:52:38.349Z,1015.32
2016-07-03T04:53:38.360Z,1015.31
2016-07-03T04:54:39.220Z,1015.31
2016-07-03T04:55:38.378Z,1015.31
2016-07-03T04:56:38.387Z,1015.32
2016-07-03T04:57:38.395Z,1015.35
2016-07-03T04:58:38.452Z,1015.33
2016-07-03T04:59:38.416Z,1015.37
2016-07-03T05:00:38.426Z,1015.38
2016-07-03T05:01:39.901Z,1015.37
2016-07-03T05:02:38.446Z,1015.37
2016-07-03T05:03:38.459Z,1015.39
2016-07-03T05:04:38.827Z,1015.39
2016-07-03T05:05:38.480Z,1015.45
2016-07-03T05:06:38.488Z,1015.44
2016-07-03T05:07:38.731Z,1015.44
2016-07-03T05:08:38.509Z,1015.45
2016-07-03T05:09:38.521Z,1015.48
2016-07-03T05:10:38.531Z,1015.49
2016-07-03T05:11:38.544Z,1015.45
2016-07-03T05:12:38.552Z,1015.5
2016-07-03T05:13:38.568Z,1015.54
2016-07-03T05:14:38.576Z,1015.49
2016-07-03T05:15:38.584Z,1015.47
2016-07-03T05:16:38.601Z,1015.48
2016-07-03T05:17:38.612Z,1015.5
2016-07-03T05:18:38.622Z,1015.47
2016-07-03T05:19:38.633Z,1015.47
2016-07-03T05:20:38.647Z,1015.49
2016-07-03T05:21:38.658Z,1015.54
2016-07-03T05:22:38.670Z,1015.57
2016-07-03T05:23:38.684Z,1015.57
2016-07-03T05:24:38.696Z,1015.56
2016-07-03T05:25:38.706Z,1015.57
2016-07-03T05:26:38.720Z,1015.56
2016-07-03T05:27:38.734Z,1015.56
2016-07-03T05:28:38.742Z,1015.62
2016-07-03T05:29:38.759Z,1015.61
2016-07-03T05:30:38.768Z,1015.59
2016-07-03T05:31:38.781Z,1015.62
2016-07-03T05:32:38.793Z,1015.64
2016-07-03T05:33:38.807Z,1015.65
2016-07-03T05:34:38.821Z,1015.65
2016-07-03T05:35:38.834Z,1015.74
2016-07-03T05:36:38.847Z,1015.7
2016-07-03T05:37:38.858Z,1015.68
2016-07-03T05:38:38.871Z,1015.71
2016-07-03T05:39:38.883Z,1015.72
2016-07-03T05:40:38.900Z,1015.76
2016-07-03T05:41:38.908Z,1015.76
2016-07-03T05:42:38.926Z,1015.79
2016-07-03T05:43:39.639Z,1015.79
2016-07-03T05:44:39.655Z,1015.79
2016-07-03T05:45:38.966Z,1015.76
2016-07-03T05:46:39.583Z,1015.77
2016-07-03T05:47:39.596Z,1015.78
2016-07-03T05:48:39.008Z,1015.81
2016-07-03T05:49:39.024Z,1015.82
2016-07-03T05:50:39.037Z,1015.81
2016-07-03T05:51:39.051Z,1015.8
2016-07-03T05:52:39.064Z,1015.8
2016-07-03T05:53:39.080Z,1015.79
2016-07-03T05:54:39.545Z,1015.78
2016-07-03T05:55:39.107Z,1015.8
2016-07-03T05:56:39.271Z,1015.81
2016-07-03T05:57:39.138Z,1015.83
2016-07-03T05:58:39.152Z,1015.82
2016-07-03T05:59:39.165Z,1015.84
2016-07-03T06:00:39.183Z,1015.81
2016-07-03T06:01:39.197Z,1015.83
2016-07-03T06:02:39.214Z,1015.85
2016-07-03T06:03:39.226Z,1015.87
2016-07-03T06:04:39.244Z,1015.97
2016-07-03T06:05:39.260Z,1015.91
2016-07-03T06:06:39.272Z,1016
2016-07-03T06:07:39.288Z,1015.96
2016-07-03T06:08:39.305Z,1015.98
2016-07-03T06:09:39.319Z,1016
2016-07-03T06:10:39.335Z,1015.99
2016-07-03T06:11:39.350Z,1015.98
2016-07-03T06:12:39.372Z,1015.98
2016-07-03T06:13:39.952Z,1016
2016-07-03T06:14:39.398Z,1015.98
2016-07-03T06:15:39.415Z,1015.99
2016-07-03T06:16:39.433Z,1015.97
2016-07-03T06:17:39.446Z,1015.98
2016-07-03T06:18:39.463Z,1015.96
2016-07-03T06:19:39.482Z,1015.98
2016-07-03T06:20:40.627Z,1015.94
2016-07-03T06:21:39.512Z,1015.95
2016-07-03T06:22:39.528Z,1015.96
2016-07-03T06:23:39.545Z,1015.92
2016-07-03T06:24:39.563Z,1015.92
2016-07-03T06:25:39.580Z,1015.91
2016-07-03T06:26:39.598Z,1015.93
2016-07-03T06:27:39.613Z,1015.98
2016-07-03T06:28:39.631Z,1016.01
2016-07-03T06:29:39.648Z,1016.02
2016-07-03T06:30:39.666Z,1016.05
2016-07-03T06:31:39.681Z,1016.04
2016-07-03T06:32:39.700Z,1016.06
2016-07-03T06:33:39.715Z,1016.1
2016-07-03T06:34:39.733Z,1016.1
2016-07-03T06:35:39.753Z,1016.13
2016-07-03T06:36:39.770Z,1016.12
2016-07-03T06:37:39.786Z,1016.16
2016-07-03T06:38:39.805Z,1016.17
2016-07-03T06:39:39.820Z,1016.14
2016-07-03T06:40:39.836Z,1016.16
2016-07-03T06:41:39.856Z,1016.12
2016-07-03T06:42:39.876Z,1016.07
2016-07-03T06:43:39.894Z,1016.09
2016-07-03T06:44:39.911Z,1016.1
2016-07-03T06:45:39.931Z,1016.11
2016-07-03T06:46:39.946Z,1016.11
2016-07-03T06:47:39.968Z,1016.1
2016-07-03T06:48:39.987Z,1016.14
2016-07-03T06:49:40.004Z,1016.17
2016-07-03T06:50:40.021Z,1016.19
2016-07-03T06:51:40.040Z,1016.23
2016-07-03T06:52:40.059Z,1016.24
2016-07-03T06:53:40.076Z,1016.25
2016-07-03T06:54:40.094Z,1016.29
2016-07-03T06:55:40.117Z,1016.29
2016-07-03T06:56:40.136Z,1016.31
2016-07-03T06:57:40.153Z,1016.28
2016-07-03T06:58:40.172Z,1016.29
2016-07-03T06:59:40.188Z,1016.3
2016-07-03T07:00:40.212Z,1016.27
2016-07-03T07:01:40.680Z,1016.29
2016-07-03T07:02:40.247Z,1016.28
2016-07-03T07:03:40.267Z,1016.27
2016-07-03T07:04:40.286Z,1016.33
2016-07-03T07:05:40.708Z,1016.31
2016-07-03T07:06:40.327Z,1016.32
2016-07-03T07:07:40.345Z,1016.35
2016-07-03T07:08:40.362Z,1016.33
2016-07-03T07:09:40.385Z,1016.38
2016-07-03T07:10:40.403Z,1016.39
2016-07-03T07:11:40.422Z,1016.37
2016-07-03T07:12:40.445Z,1016.37
2016-07-03T07:13:40.464Z,1016.39
2016-07-03T07:14:40.485Z,1016.41
2016-07-03T07:15:40.503Z,1016.41
2016-07-03T07:16:40.527Z,1016.43
2016-07-03T07:17:40.545Z,1016.45
2016-07-03T07:18:40.568Z,1016.47
2016-07-03T07:19:40.586Z,1016.5
2016-07-03T07:20:40.607Z,1016.48
2016-07-03T07:21:40.631Z,1016.54
2016-07-03T07:22:40.653Z,1016.51
2016-07-03T07:23:40.670Z,1016.57
2016-07-03T07:24:40.691Z,1016.58
2016-07-03T07:25:40.715Z,1016.6
2016-07-03T07:26:40.731Z,1016.58
2016-07-03T07:27:40.757Z,1016.68
2016-07-03T07:28:41.141Z,1016.75
2016-07-03T07:29:40.796Z,1016.88
2016-07-03T07:30:42.193Z,1016.94
2016-07-03T07:31:40.839Z,1017.03
2016-07-03T07:32:40.860Z,1017.05
2016-07-03T07:33:41.472Z,1017.07
2016-07-03T07:34:40.903Z,1017.19
2016-07-03T07:35:40.927Z,1017.01
2016-07-03T07:36:40.946Z,1017.17
2016-07-03T07:37:40.968Z,1017.15
2016-07-03T07:38:40.991Z,1017.11
2016-07-03T07:39:41.038Z,1017.2
2016-07-03T07:40:41.034Z,1017.1
2016-07-03T07:41:41.052Z,1017.05
2016-07-03T07:42:41.074Z,1017.05
2016-07-03T07:43:41.095Z,1017.05
2016-07-03T07:44:41.349Z,1017.11
2016-07-03T07:45:41.139Z,1017.03
2016-07-03T07:46:41.161Z,1017.04
2016-07-03T07:47:41.182Z,1017.04
2016-07-03T07:48:41.204Z,1017.01
2016-07-03T07:49:41.228Z,1017
2016-07-03T07:50:41.244Z,1016.95
2016-07-03T07:51:41.265Z,1016.99
2016-07-03T07:52:41.285Z,1017.02
2016-07-03T07:53:41.309Z,1016.1
2016-07-03T07:54:41.331Z,1016.04
2016-07-03T07:55:41.351Z,1016.88
2016-07-03T07:56:41.368Z,1017.01
2016-07-03T07:57:41.390Z,1017.14
2016-07-03T07:58:41.413Z,1016.14
2016-07-03T07:59:41.433Z,1016.68
2016-07-03T08:00:41.452Z,1018.22
2016-07-03T08:01:41.473Z,1018.33
2016-07-03T08:02:41.494Z,1018.25
2016-07-03T08:03:41.511Z,1018.23
2016-07-03T08:04:41.533Z,1018.25
2016-07-03T08:05:41.550Z,1018.3
2016-07-03T08:06:41.572Z,1018.38
2016-07-03T08:07:41.587Z,1018.41
2016-07-03T08:08:41.610Z,1018.59
2016-07-03T08:09:41.630Z,1018.61
2016-07-03T08:10:41.648Z,1018.83
2016-07-03T08:11:41.666Z,1016.36
2016-07-03T08:12:41.693Z,1018.67
2016-07-03T08:13:41.711Z,1018.73
2016-07-03T08:14:41.731Z,1018.64
2016-07-03T08:15:41.751Z,1018.37
2016-07-03T08:16:41.772Z,1018.24
2016-07-03T08:17:41.789Z,1018.35
2016-07-03T08:18:41.812Z,1018.14
2016-07-03T08:19:41.829Z,1016.06
2016-07-03T08:20:41.848Z,1017.98
2016-07-03T08:21:41.873Z,1017.86
2016-07-03T08:22:41.890Z,1017.83
2016-07-03T08:23:41.914Z,1017.88
2016-07-03T08:24:41.932Z,1017.86
2016-07-03T08:25:42.302Z,1017.45
2016-07-03T08:26:41.975Z,1017.75
2016-07-03T08:27:41.994Z,1017.42
2016-07-03T08:28:43.068Z,1017.21
2016-07-03T08:29:42.035Z,1017.15
2016-07-03T08:30:42.058Z,1017.34
2016-07-03T08:31:42.077Z,1017.19
2016-07-03T08:32:42.097Z,1017.32
2016-07-03T08:33:42.569Z,1016.55
2016-07-03T08:34:42.139Z,1016.56
2016-07-03T08:35:42.159Z,1016.54
2016-07-03T08:36:42.176Z,1016.63
2016-07-03T08:37:42.195Z,1016.64
2016-07-03T08:38:42.216Z,1016.23
2016-07-03T08:39:42.234Z,1016.19
2016-07-03T08:40:42.250Z,1016.27
2016-07-03T08:41:42.268Z,1016.69
2016-07-03T08:42:42.288Z,1016.04
2016-07-03T08:43:42.303Z,1016.39
2016-07-03T08:44:42.316Z,1016.05
2016-07-03T08:45:42.337Z,1015.96
2016-07-03T08:46:43.739Z,1015.93
2016-07-03T08:47:42.369Z,1015.96
2016-07-03T08:48:42.381Z,1016.35
2016-07-03T08:49:42.397Z,1016.68
2016-07-03T08:50:42.413Z,1016.58
2016-07-03T08:51:42.425Z,1016.27
2016-07-03T08:52:42.442Z,1017.19
2016-07-03T08:53:42.459Z,1016.91
2016-07-03T08:54:42.473Z,1016.57
2016-07-03T08:55:42.493Z,1017.11
2016-07-03T08:56:42.807Z,1016.41
2016-07-03T08:57:42.512Z,1016.22
2016-07-03T08:58:42.521Z,1016.11
2016-07-03T08:59:42.537Z,1016.09
2016-07-03T09:00:42.562Z,1016.09
2016-07-03T09:01:42.566Z,1016.09
2016-07-03T09:02:42.578Z,1015.96
2016-07-03T09:03:42.594Z,1015.96
2016-07-03T09:04:42.608Z,1015.87
2016-07-03T09:05:42.622Z,1015.86
2016-07-03T09:06:42.632Z,1015.98
2016-07-03T09:07:42.647Z,1016.13
2016-07-03T09:08:42.661Z,1016.04
2016-07-03T09:09:42.671Z,1016.11
2016-07-03T09:10:42.682Z,1016.07
2016-07-03T09:11:42.695Z,1016.03
2016-07-03T09:12:42.709Z,1016.27
2016-07-03T09:13:42.718Z,1016.28
2016-07-03T09:14:42.731Z,1016.17
2016-07-03T09:15:42.742Z,1016.09
2016-07-03T09:16:42.753Z,1016.07
2016-07-03T09:17:42.763Z,1015.81
2016-07-03T09:18:42.772Z,1015.86
2016-07-03T09:19:42.784Z,1015.87
2016-07-03T09:20:42.797Z,1015.89
2016-07-03T09:21:42.803Z,1016
2016-07-03T09:22:42.814Z,1015.96
2016-07-03T09:23:42.827Z,1015.9
2016-07-03T09:24:42.834Z,1015.83
2016-07-03T09:25:42.843Z,1015.84
2016-07-03T09:26:42.863Z,1015.8
2016-07-03T09:27:42.863Z,1015.74
2016-07-03T09:28:42.873Z,1015.75
2016-07-03T09:29:42.886Z,1015.75
2016-07-03T09:30:42.893Z,1015.69
2016-07-03T09:31:42.904Z,1015.69
2016-07-03T09:32:42.914Z,1015.69
2016-07-03T09:33:42.921Z,1015.71
2016-07-03T09:34:42.928Z,1015.72
2016-07-03T09:35:42.937Z,1015.76
2016-07-03T09:36:42.946Z,1015.86
2016-07-03T09:37:42.956Z,1015.62
2016-07-03T09:38:42.965Z,1015.52
2016-07-03T09:39:42.975Z,1015.53
2016-07-03T09:40:42.978Z,1015.58
2016-07-03T09:41:42.991Z,1015.75
2016-07-03T09:42:42.997Z,1015.91
2016-07-03T09:43:43.005Z,1015.82
2016-07-03T09:44:43.021Z,1015.7
2016-07-03T09:45:43.026Z,1015.64
2016-07-03T09:46:43.028Z,1015.58
2016-07-03T09:47:44.087Z,1015.62
2016-07-03T09:48:43.040Z,1015.71
2016-07-03T09:49:43.049Z,1015.57
2016-07-03T09:50:43.059Z,1015.63
2016-07-03T09:51:43.067Z,1015.47
2016-07-03T09:52:43.075Z,1015.46
2016-07-03T09:53:43.083Z,1015.53
2016-07-03T09:54:43.085Z,1015.5
2016-07-03T09:55:43.098Z,1015.63
2016-07-03T09:56:43.105Z,1015.9
2016-07-03T09:57:43.114Z,1015.7
2016-07-03T09:58:43.118Z,1015.77
2016-07-03T09:59:43.129Z,1015.85
2016-07-03T10:00:43.135Z,1015.7
2016-07-03T10:01:43.145Z,1015.84
2016-07-03T10:02:43.153Z,1015.68
2016-07-03T10:03:43.158Z,1015.68
2016-07-03T10:04:43.165Z,1015.71
2016-07-03T10:05:44.525Z,1015.55
2016-07-03T10:06:43.182Z,1015.43
2016-07-03T10:07:43.190Z,1015.32
2016-07-03T10:08:43.199Z,1015.3
2016-07-03T10:09:43.207Z,1015.3
2016-07-03T10:10:43.365Z,1015.35
2016-07-03T10:11:43.221Z,1015.39
2016-07-03T10:12:43.228Z,1015.54
2016-07-03T10:14:43.244Z,1015.72
2016-07-03T10:15:43.252Z,1015.79
2016-07-03T10:16:43.257Z,1015.79
2016-07-03T10:17:44.337Z,1015.63
2016-07-03T10:18:43.371Z,1015.68
2016-07-03T10:19:43.279Z,1015.54
2016-07-03T10:20:43.291Z,1015.43
2016-07-03T10:21:43.294Z,1015.47
2016-07-03T10:22:43.302Z,1015.53
2016-07-03T10:23:43.311Z,1015.65
2016-07-03T10:24:43.319Z,1015.57
2016-07-03T10:25:43.326Z,1015.58
2016-07-03T10:26:43.333Z,1015.36
2016-07-03T10:27:43.341Z,1015.29
2016-07-03T10:28:43.349Z,1015.31
2016-07-03T10:29:43.354Z,1015.57
2016-07-03T10:30:43.362Z,1015.7
2016-07-03T10:31:43.367Z,1015.66
2016-07-03T10:32:43.379Z,1015.72
2016-07-03T10:33:43.388Z,1015.64
2016-07-03T10:34:43.394Z,1015.75
2016-07-03T10:35:43.399Z,1015.46
2016-07-03T10:36:43.406Z,1015.53
2016-07-03T10:37:43.416Z,1015.34
2016-07-03T10:38:43.422Z,1015.19
2016-07-03T10:39:43.428Z,1015.01
2016-07-03T10:40:43.437Z,1015.01
2016-07-03T10:41:43.442Z,1015.03
2016-07-03T10:42:43.452Z,1015.14
2016-07-03T10:43:43.460Z,1015.18
2016-07-03T10:44:43.477Z,1015.3
2016-07-03T10:45:43.474Z,1015.18
2016-07-03T10:46:43.480Z,1015.02
2016-07-03T10:47:43.488Z,1014.9
2016-07-03T10:48:43.492Z,1014.96
2016-07-03T10:49:43.499Z,1014.92
2016-07-03T10:50:43.508Z,1015
2016-07-03T10:51:43.517Z,1015.11
2016-07-03T10:52:43.521Z,1015.08
2016-07-03T10:53:43.527Z,1015.08
2016-07-03T10:54:43.537Z,1015.05
2016-07-03T10:55:43.544Z,1014.89
2016-07-03T10:56:43.550Z,1014.77
2016-07-03T10:57:43.559Z,1014.79
2016-07-03T10:58:43.616Z,1014.75
2016-07-03T10:59:43.571Z,1014.72
2016-07-03T11:00:43.577Z,1014.73
2016-07-03T11:01:43.584Z,1014.85
2016-07-03T11:02:43.592Z,1014.77
2016-07-03T11:03:43.598Z,1014.68
2016-07-03T11:04:43.602Z,1014.85
2016-07-03T11:05:44.214Z,1014.84
2016-07-03T11:07:43.623Z,1014.72
2016-07-03T11:08:43.631Z,1014.67
2016-07-03T11:09:43.786Z,1014.69
2016-07-03T11:10:43.642Z,1014.62
2016-07-03T11:11:43.649Z,1014.66
2016-07-03T11:12:43.657Z,1014.62
2016-07-03T11:13:43.663Z,1014.64
2016-07-03T11:14:43.664Z,1014.56
2016-07-03T11:15:43.674Z,1014.5
2016-07-03T11:16:43.682Z,1014.46
2016-07-03T11:17:43.689Z,1014.61
2016-07-03T11:18:43.692Z,1014.72
2016-07-03T11:19:43.699Z,1014.89
2016-07-03T11:20:43.707Z,1014.79
2016-07-03T11:21:43.711Z,1014.64
2016-07-03T11:22:43.719Z,1014.48
2016-07-03T11:23:43.791Z,1014.48
2016-07-03T11:24:43.730Z,1014.53
2016-07-03T11:25:44.325Z,1014.45
2016-07-03T11:26:43.740Z,1014.61
2016-07-03T11:27:43.750Z,1014.8
2016-07-03T11:28:43.756Z,1014.58
2016-07-03T11:29:43.762Z,1014.78
2016-07-03T11:30:43.768Z,1014.78
2016-07-03T11:31:43.770Z,1014.7
2016-07-03T11:32:43.780Z,1014.77
2016-07-03T11:33:43.783Z,1014.44
2016-07-03T11:34:43.790Z,1014.34
2016-07-03T11:35:43.797Z,1014.29
2016-07-03T11:36:43.803Z,1014.36
2016-07-03T11:37:43.807Z,1014.36
2016-07-03T11:38:43.814Z,1014.34
2016-07-03T11:39:43.819Z,1014.3
2016-07-03T11:40:43.831Z,1014.34
2016-07-03T11:41:43.834Z,1014.35
2016-07-03T11:42:43.840Z,1014.53
2016-07-03T11:43:43.845Z,1014.5
2016-07-03T11:44:43.850Z,1014.38
2016-07-03T11:45:43.856Z,1014.32
2016-07-03T11:46:43.859Z,1014.49
2016-07-03T11:47:43.866Z,1014.45
2016-07-03T11:48:43.871Z,1014.4
2016-07-03T11:49:43.877Z,1014.45
2016-07-03T11:50:43.884Z,1014.5
2016-07-03T11:51:43.889Z,1014.4
2016-07-03T11:52:43.895Z,1014.39
2016-07-03T11:53:43.899Z,1014.31
2016-07-03T11:54:43.911Z,1014.27
2016-07-03T11:55:43.909Z,1014.19
2016-07-03T11:56:43.918Z,1014.21
2016-07-03T11:57:43.922Z,1014.26
2016-07-03T11:58:43.926Z,1014.19
2016-07-03T11:59:43.933Z,1014.29
2016-07-03T12:00:43.939Z,1014.39
2016-07-03T12:01:43.941Z,1014.45
2016-07-03T12:02:43.947Z,1014.43
2016-07-03T12:03:43.954Z,1014.32
2016-07-03T12:04:43.960Z,1014.28
2016-07-03T12:05:43.966Z,1014.3
2016-07-03T12:06:43.971Z,1014.26
2016-07-03T12:07:43.976Z,1014.22
2016-07-03T12:08:43.980Z,1014.24
2016-07-03T12:09:44.088Z,1014.25
2016-07-03T12:10:43.991Z,1014.37
2016-07-03T12:11:43.996Z,1014.31
2016-07-03T12:12:44.002Z,1014.5
2016-07-03T12:13:44.006Z,1014.51